Latest Weather Observations for Karratha

IDW60801

Issued at 10:04 pm WST Sunday 26 February 2017 (issued every 30 minutes, with the page automatically refreshed every 10 minutes)

About weather observations | Map of weather stations | Latest weather observations for WA | Other Formats
Station Details ID: 004083 Name: KARRATHA AERO Lat: -20.71 Lon: 116.77 Height: 5.3 m
Data from the previous 72 hours. | See also: Recent months at Karratha
Date/Time
WST
Temp
°C
App
Temp
°C
Dew
Point
°C
Rel
Hum
%
Delta-T
°C
Wind Press
QNH
hPa
Press
MSL
hPa
Rain since
9am
mm
Dir  Spd
km/h
Gust
km/h
Spd
kts
Gust
kts
26/10:00pm 29.9 30.9 21.8 62 5.5 E 19 24 10 13 1009.8 1009.8 0.0
26/09:30pm 30.2 31.9 23.1 65 4.9 ENE 19 22 10 12 1009.2 1009.1 0.0
26/09:00pm 30.6 32.7 21.7 59 6.0 NNE 13 17 7 9 1008.7 1008.6 0.0
26/08:30pm 30.6 31.9 20.2 53 6.9 E 13 19 7 10 1008.9 1008.8 0.0
26/08:00pm 31.1 32.2 23.7 64 5.1 ENE 24 39 13 21 1008.7 1008.6 0.0
26/07:33pm 31.5 34.7 26.5 75 3.6 ENE 22 46 12 25 1008.6 1008.5 0.0
26/07:30pm 31.3 35.4 26.3 75 3.6 NE 17 28 9 15 1008.2 1008.1 0.0
26/07:00pm 31.7 35.1 25.3 69 4.5 NE 17 20 9 11 1006.8 1006.7 0.0
26/06:30pm 32.3 35.2 25.1 65 5.1 NE 19 20 10 11 1006.0 1005.9 0.0
26/06:00pm 32.9 36.0 25.4 64 5.3 NE 19 22 10 12 1005.6 1005.5 0.0
26/05:30pm 33.5 36.1 24.9 60 6.1 NNE 20 24 11 13 1005.5 1005.4 0.0
26/05:00pm 34.4 36.2 24.3 55 7.1 NNE 22 30 12 16 1005.8 1005.7 0.0
26/04:30pm 34.2 35.2 24.2 56 7.0 NNE 26 32 14 17 1005.6 1005.5 0.0
26/04:00pm 34.3 36.3 25.1 58 6.5 NE 24 32 13 17 1005.7 1005.6 0.0
26/03:30pm 34.3 36.4 26.5 64 5.6 NE 28 35 15 19 1005.8 1005.7 0.0
26/03:00pm 33.7 35.4 26.5 66 5.2 NNE 30 37 16 20 1006.0 1005.9 0.0
26/02:30pm 33.7 35.2 26.7 67 5.1 NE 32 39 17 21 1006.2 1006.1 0.0
26/02:00pm 33.2 34.3 26.2 66 5.0 NE 32 39 17 21 1006.6 1006.5 0.0
26/01:30pm 34.4 36.4 26.3 62 5.8 NNE 28 33 15 18 1006.8 1006.7 0.0
26/01:00pm 35.3 35.8 24.6 54 7.6 NE 30 35 16 19 1007.1 1007.0 0.0
26/12:30pm 36.5 35.7 22.3 44 9.8 NE 30 37 16 20 1007.3 1007.2 0.0
26/12:00pm 36.8 36.3 21.4 41 10.5 NE 26 32 14 17 1007.6 1007.5 0.0
26/11:30am 36.7 36.9 22.1 43 10.0 ENE 24 30 13 16 1007.8 1007.7 0.0
26/11:00am 37.7 35.9 18.7 33 12.6 ENE 26 32 14 17 1008.0 1007.9 0.0
26/10:30am 37.9 35.3 17.8 30 13.1 ENE 28 35 15 19 1008.2 1008.1 0.0
26/10:00am 37.4 34.8 16.9 30 13.2 ENE 26 32 14 17 1008.2 1008.1 0.0
26/09:30am 35.3 35.8 20.0 40 10.2 NE 17 22 9 12 1008.4 1008.3 0.0
26/09:00am 35.5 34.7 17.2 33 11.8 ESE 17 22 9 12 1008.2 1008.1 0.0
26/08:30am 33.7 33.8 16.6 36 10.8 SE 11 15 6 8 1008.2 1008.1 0.0
26/08:00am 31.8 34.6 18.0 43 8.9 CALM 0 6 0 3 1007.9 1007.8 0.0
26/07:30am 29.6 31.4 18.7 52 7.0 S 7 9 4 5 1007.8 1007.7 0.0
26/07:00am 28.3 31.0 17.8 53 6.7 CALM 0 0 0 0 1007.8 1007.7 0.0
26/06:30am 26.9 29.6 17.7 57 5.8 CALM 0 0 0 0 1007.6 1007.5 0.0
26/06:00am 26.4 29.3 18.3 61 5.2 CALM 0 0 0 0 1007.5 1007.4 0.0
26/05:30am 26.2 29.3 18.6 63 4.8 CALM 0 0 0 0 1007.3 1007.2 0.0
26/05:00am 25.8 27.1 18.5 64 4.6 SSE 9 11 5 6 1007.2 1007.1 0.0
26/04:30am 26.6 27.4 18.2 60 5.3 S 11 15 6 8 1007.0 1006.9 0.0
26/04:00am 26.6 27.0 18.2 60 5.3 SSE 13 17 7 9 1007.0 1006.9 0.0
26/03:30am 26.8 26.4 18.1 59 5.5 SSE 17 19 9 10 1007.0 1006.9 0.0
26/03:00am 26.9 27.1 18.5 60 5.4 SSE 15 17 8 9 1007.3 1007.2 0.0
26/02:30am 26.5 27.3 19.1 64 4.8 SSE 13 15 7 8 1007.4 1007.3 0.0
26/02:00am 26.5 27.6 19.6 66 4.5 SSE 13 15 7 8 1007.7 1007.6 0.0
26/01:30am 26.9 28.2 19.3 63 4.9 SSE 11 11 6 6 1007.9 1007.8 0.0
26/01:00am 27.6 28.4 19.1 59 5.5 S 13 13 7 7 1008.2 1008.1 0.0
26/12:30am 27.7 28.5 19.8 62 5.1 SSE 15 17 8 9 1008.4 1008.3 0.0
26/12:00am 27.5 29.0 20.6 66 4.6 SSE 13 15 7 8 1008.9 1008.8 0.0
 
Date/Time
WST
Temp
°C
App
Temp
°C
Dew
Point
°C
Rel
Hum
%
Delta-T
°C
Wind Press
QNH
hPa
Press
MSL
hPa
Rain since
9am
mm
Dir  Spd
km/h
Gust
km/h
Spd
kts
Gust
kts
25/11:30pm 28.3 30.0 20.1 61 5.4 S 11 13 6 7 1009.0 1008.9 0.0
25/11:00pm 28.9 30.6 20.9 62 5.3 S 13 15 7 8 1009.1 1009.0 0.0
25/10:30pm 29.7 31.7 21.6 61 5.4 SSW 13 15 7 8 1009.3 1009.2 0.0
25/10:00pm 29.9 33.4 22.9 66 4.8 SW 9 13 5 7 1009.3 1009.2 0.0
25/09:30pm 31.1 34.1 22.7 61 5.7 SW 11 13 6 7 1009.4 1009.3 0.0
25/09:00pm 31.4 34.6 24.3 66 5.0 SW 15 19 8 10 1009.3 1009.2 0.0
25/08:30pm 31.7 34.0 25.1 68 4.7 WSW 22 33 12 18 1009.1 1009.0 0.0
25/08:00pm 32.1 34.8 24.2 63 5.5 WNW 17 24 9 13 1008.7 1008.6 0.0
25/07:30pm 32.2 36.4 25.3 67 4.9 NW 13 17 7 9 1008.2 1008.1 0.0
25/07:00pm 32.9 36.7 23.5 57 6.5 N 9 13 5 7 1007.7 1007.6 0.0
25/06:30pm 34.2 34.6 19.8 42 9.6 NNE 17 20 9 11 1007.3 1007.2 0.0
25/06:00pm 35.5 34.4 17.7 35 11.5 NNE 20 30 11 16 1007.1 1007.0 0.0
25/05:30pm 36.1 34.6 17.7 33 11.9 NNE 22 30 12 16 1006.8 1006.7 0.0
25/05:00pm 36.6 34.1 16.2 29 13.0 NNE 24 32 13 17 1007.0 1006.9 0.0
25/04:30pm 37.2 34.2 16.7 29 13.2 NE 28 33 15 18 1007.1 1007.0 0.0
25/04:00pm 37.0 34.9 18.1 33 12.4 NE 26 35 14 19 1007.1 1007.0 0.0
25/03:30pm 37.3 36.1 20.1 36 11.6 NE 26 35 14 19 1007.4 1007.3 0.0
25/03:00pm 37.7 36.0 20.5 36 11.6 NE 30 39 16 21 1007.6 1007.5 0.0
25/02:30pm 37.8 36.0 18.7 32 12.6 NE 26 32 14 17 1007.9 1007.8 0.0
25/02:00pm 37.4 35.9 20.2 36 11.6 NE 28 33 15 18 1008.4 1008.3 0.0
25/01:30pm 38.2 37.0 20.9 36 11.8 ENE 28 37 15 20 1008.5 1008.4 0.0
25/01:00pm 37.9 37.4 21.5 38 11.2 NE 26 32 14 17 1008.9 1008.8 0.0
25/12:30pm 38.1 36.9 20.0 35 12.2 NE 26 33 14 18 1009.1 1009.0 0.0
25/12:00pm 38.2 37.5 19.6 34 12.5 ENE 22 30 12 16 1009.4 1009.3 0.0
25/11:30am 36.9 36.0 20.6 38 11.0 NE 26 33 14 18 1009.5 1009.5 0.0
25/11:00am 37.3 36.3 19.7 35 11.8 ENE 24 30 13 16 1009.6 1009.6 0.0
25/10:30am 37.4 35.1 18.4 32 12.5 ENE 28 35 15 19 1009.8 1009.8 0.0
25/10:00am 37.2 34.7 16.2 29 13.4 E 24 32 13 17 1009.9 1009.9 0.0
25/09:30am 35.7 36.3 18.7 36 11.2 ENE 13 19 7 10 1009.9 1009.9 0.0
25/09:00am 34.3 35.0 17.1 36 11.0 SE 9 15 5 8 1010.0 1010.0 0.2
25/08:30am 32.4 34.6 19.6 46 8.4 SSW 7 9 4 5 1010.0 1010.0 0.2
25/08:00am 31.3 33.0 19.3 49 7.9 SSW 9 11 5 6 1009.8 1009.8 0.2
25/07:30am 29.9 32.8 19.9 55 6.6 SW 4 9 2 5 1009.6 1009.6 0.2
25/07:00am 28.9 31.1 20.4 60 5.6 SW 9 11 5 6 1009.4 1009.3 0.2
25/06:30am 28.7 32.4 19.9 59 5.8 CALM 0 4 0 2 1009.3 1009.2 0.2
25/06:00am 28.6 30.8 19.2 56 6.1 SW 6 9 3 5 1008.9 1008.8 0.2
25/05:30am 28.7 30.5 18.8 55 6.4 SW 7 9 4 5 1008.7 1008.6 0.2
25/05:00am 28.2 29.2 18.6 56 6.2 SW 11 13 6 7 1008.6 1008.5 0.2
25/04:30am 28.0 29.5 19.0 58 5.8 SW 9 11 5 6 1008.6 1008.5 0.2
25/04:00am 27.9 29.8 18.9 58 5.8 SW 7 9 4 5 1008.5 1008.4 0.2
25/03:30am 28.2 29.6 18.6 56 6.2 SW 9 13 5 7 1008.4 1008.3 0.2
25/03:00am 28.5 29.5 18.6 55 6.4 SW 11 13 6 7 1008.5 1008.4 0.2
25/02:30am 29.4 29.4 18.2 51 7.2 SW 15 17 8 9 1008.6 1008.5 0.2
25/02:00am 31.2 30.5 18.2 46 8.4 WSW 19 20 10 11 1008.6 1008.5 0.2
25/01:30am 32.1 31.2 18.3 44 8.9 WSW 20 24 11 13 1008.8 1008.7 0.2
25/01:00am 32.5 31.1 17.9 41 9.4 WSW 22 26 12 14 1009.2 1009.1 0.2
25/12:30am 32.7 30.5 16.9 38 10.0 WSW 24 30 13 16 1009.7 1009.7 0.2
25/12:00am 32.5 31.3 18.3 43 9.2 SW 22 28 12 15 1010.3 1010.3 0.2
 
Date/Time
WST
Temp
°C
App
Temp
°C
Dew
Point
°C
Rel
Hum
%
Delta-T
°C
Wind Press
QNH
hPa
Press
MSL
hPa
Rain since
9am
mm
Dir  Spd
km/h
Gust
km/h
Spd
kts
Gust
kts
24/11:30pm 31.7 30.7 17.6 43 9.0 SW 19 28 10 15 1010.8 1010.8 0.2
24/11:00pm 31.5 33.5 17.8 44 8.8 NNW 4 9 2 5 1011.5 1011.5 0.2
24/10:30pm 32.5 31.7 17.2 40 9.7 E 17 26 9 14 1011.8 1011.8 0.2
24/10:00pm 33.4 32.1 16.7 36 10.6 ESE 19 50 10 27 1011.5 1011.5 0.2
24/09:56pm 33.8 31.5 15.7 33 11.3 S 22 50 12 27 1011.4 1011.4 0.2
24/09:30pm 31.6 31.8 22.0 56 6.5 SW 24 30 13 16 1010.4 1010.4 0.2
24/09:00pm 33.2 33.8 21.4 50 8.0 WSW 20 28 11 15 1010.5 1010.5 0.2
24/08:30pm 33.7 33.5 19.7 43 9.3 WSW 20 24 11 13 1010.2 1010.2 0.2
24/08:00pm 33.8 33.8 19.8 43 9.3 W 19 22 10 12 1010.1 1010.1 0.2
24/07:30pm 33.1 33.7 21.3 50 8.0 W 20 30 11 16 1009.8 1009.8 0.2
24/07:00pm 33.5 33.7 22.0 51 7.8 W 24 28 13 15 1009.7 1009.7 0.0
24/06:30pm 34.9 33.6 17.2 35 11.4 W 20 24 11 13 1009.2 1009.1 0.0
24/06:00pm 35.9 34.7 16.1 30 12.6 WNW 17 20 9 11 1009.0 1008.9 0.0
24/05:30pm 36.8 35.9 15.8 28 13.3 NW 15 19 8 10 1009.0 1008.9 0.0
24/05:00pm 37.0 36.6 17.1 31 12.9 NNW 15 19 8 10 1008.9 1008.8 0.0
24/04:30pm 36.9 35.8 15.4 28 13.5 NNW 15 19 8 10 1008.8 1008.7 0.0
24/04:00pm 38.0 36.9 16.3 27 13.9 NNW 17 24 9 13 1008.9 1008.8 0.0
24/03:30pm 38.2 36.9 15.9 26 14.2 NNW 17 20 9 11 1009.1 1009.0 0.0
24/03:00pm 39.3 38.6 14.3 22 15.7 N 11 17 6 9 1009.3 1009.2 0.0
24/02:30pm 38.6 37.6 12.4 21 15.9 NNE 9 15 5 8 1009.6 1009.6 0.0
24/02:00pm 38.8 37.3 13.2 21 15.8 NNE 13 19 7 10 1009.9 1009.9 0.0
24/01:30pm 38.4 37.3 14.2 23 15.1 N 13 19 7 10 1010.4 1010.4 0.0
24/01:00pm 38.4 37.5 13.6 23 15.3 NNE 11 19 6 10 1010.9 1010.9 0.0
24/12:30pm 37.6 37.0 13.6 24 14.8 NE 9 17 5 9 1011.4 1011.4 0.0
24/12:00pm 37.8 37.9 15.6 27 14.1 NE 9 17 5 9 1011.7 1011.7 0.0
24/11:30am 37.4 35.2 13.4 24 14.7 ENE 17 26 9 14 1012.1 1012.1 0.0
24/11:00am 36.8 33.7 12.3 23 14.8 E 20 28 11 15 1012.4 1012.4 0.0
24/10:30am 36.1 33.2 13.0 25 14.0 E 20 28 11 15 1012.6 1012.6 0.0
24/10:00am 35.4 31.4 13.0 26 13.6 ESE 26 32 14 17 1012.9 1012.9 0.0
24/09:30am 34.4 32.1 15.8 33 11.7 ESE 22 30 12 16 1013.4 1013.4 0.0
24/09:00am 33.6 33.8 17.7 38 10.2 SE 13 19 7 10 1013.7 1013.7 0.0
24/08:30am 32.1 34.2 21.0 52 7.4 SSE 11 15 6 8 1013.7 1013.7 0.0
24/08:00am 30.2 33.0 21.6 60 5.8 S 9 13 5 7 1013.4 1013.4 0.0
24/07:30am 28.4 31.4 21.2 65 4.8 SSW 7 9 4 5 1013.0 1013.0 0.0
24/07:00am 26.2 29.1 21.8 77 2.9 SW 9 13 5 7 1012.8 1012.8 0.0
24/06:30am 25.8 27.8 21.5 77 2.9 SW 13 15 7 8 1012.7 1012.7 0.0
24/06:00am 25.9 28.2 21.3 76 3.0 SW 11 13 6 7 1012.5 1012.5 0.0
24/05:30am 26.7 29.5 21.5 73 3.5 SW 9 11 5 6 1012.3 1012.3 0.0
24/05:00am 27.0 29.4 21.5 72 3.7 SW 11 15 6 8 1012.1 1012.1 0.0
24/04:30am 26.2 30.1 22.9 82 2.2 S 7 9 4 5 1011.9 1011.9 0.0
24/04:00am 26.5 30.2 22.3 78 2.8 SSE 6 9 3 5 1011.6 1011.6 0.0
24/03:30am 27.1 31.7 21.8 73 3.5 CALM 0 0 0 0 1011.3 1011.3 0.0
24/03:00am 27.3 31.8 21.6 71 3.8 CALM 0 6 0 3 1011.2 1011.2 0.0
24/02:30am 27.2 31.8 21.7 72 3.7 CALM 0 0 0 0 1011.2 1011.2 0.0
24/02:00am 26.9 31.3 21.4 72 3.7 CALM 0 4 0 2 1011.5 1011.5 0.0
24/01:30am 26.4 31.1 22.0 77 2.9 CALM 0 0 0 0 1011.8 1011.8 0.0
24/01:00am 26.2 30.1 22.5 80 2.5 S 6 7 3 4 1012.0 1012.0 0.0
24/12:30am 26.3 29.6 22.6 80 2.5 S 9 11 5 6 1012.2 1012.2 0.0
24/12:00am 26.2 29.6 22.7 81 2.4 S 9 13 5 7 1012.4 1012.4 0.0
 
Date/Time
WST
Temp
°C
App
Temp
°C
Dew
Point
°C
Rel
Hum
%
Delta-T
°C
Wind Press
QNH
hPa
Press
MSL
hPa
Rain since
9am
mm
Dir  Spd
km/h
Gust
km/h
Spd
kts
Gust
kts
23/11:30pm 26.3 30.8 23.0 82 2.2 SSW 4 7 2 4 1012.7 1012.7 0.0
23/11:00pm 26.7 31.2 22.3 77 3.0 S 2 6 1 3 1012.4 1012.4 0.0
23/10:30pm 26.7 30.6 21.9 75 3.2 S 4 7 2 4 1012.6 1012.6 0.0

Other Formats:

Comma delimited format used in spreadsheet applications
http://www.bom.gov.au/fwo/IDW60801/IDW60801.95307.axf

JavaScript Object Notation format (JSON) in row-major order
http://www.bom.gov.au/fwo/IDW60801/IDW60801.95307.json